createdAt,value
2019-03-31T00:00:00.491Z,54.97
2019-03-31T00:02:30.450Z,62.00
2019-03-31T00:05:00.564Z,61.80
2019-03-31T00:07:30.587Z,58.03
2019-03-31T00:10:00.526Z,59.17
2019-03-31T00:12:30.454Z,65.10
2019-03-31T00:15:00.433Z,64.23
2019-03-31T00:17:30.370Z,69.13
2019-03-31T00:20:00.398Z,66.63
2019-03-31T00:22:30.381Z,68.57
2019-03-31T00:25:00.383Z,65.23
2019-03-31T00:27:30.301Z,60.30
2019-03-31T00:30:00.484Z,65.43
2019-03-31T00:32:30.438Z,67.10
2019-03-31T00:35:00.425Z,65.53
2019-03-31T00:37:30.361Z,63.60
2019-03-31T00:40:00.362Z,64.37
2019-03-31T00:42:30.338Z,64.10
2019-03-31T00:45:00.360Z,62.93
2019-03-31T00:47:30.483Z,66.80
2019-03-31T00:50:00.588Z,61.97
2019-03-31T00:52:30.810Z,58.40
2019-03-31T00:55:00.683Z,65.90
2019-03-31T00:57:30.699Z,63.03
2019-03-31T01:00:00.640Z,64.93
2019-03-31T01:02:32.947Z,60.43
2019-03-31T01:05:03.894Z,63.63
2019-03-31T01:07:34.001Z,63.17
2019-03-31T01:10:05.003Z,60.60
2019-03-31T01:12:35.105Z,63.97
2019-03-31T01:15:09.987Z,58.30
2019-03-31T01:17:40.110Z,60.57
2019-03-31T01:20:10.390Z,60.90
2019-03-31T01:22:40.282Z,59.40
2019-03-31T01:25:10.948Z,58.03
2019-03-31T01:27:41.231Z,63.17
2019-03-31T01:30:12.747Z,62.33
2019-03-31T01:32:42.894Z,60.43
2019-03-31T01:35:13.270Z,59.23
2019-03-31T01:37:43.312Z,61.63
2019-03-31T01:40:13.670Z,61.40
2019-03-31T01:42:43.630Z,61.07
2019-03-31T01:45:13.910Z,62.77
2019-03-31T01:47:43.787Z,65.03
2019-03-31T01:50:16.114Z,57.63
2019-03-31T01:52:45.920Z,59.93
2019-03-31T01:55:15.947Z,59.60
2019-03-31T01:57:46.157Z,65.90
2019-03-31T02:00:33.357Z,63.33
2019-03-31T02:03:03.691Z,64.93
2019-03-31T02:05:33.696Z,62.70
2019-03-31T02:08:03.786Z,61.77
2019-03-31T02:10:33.834Z,64.00
2019-03-31T02:13:03.797Z,59.10
2019-03-31T02:15:33.819Z,56.00
2019-03-31T02:18:03.792Z,56.57
2019-03-31T02:20:33.953Z,56.50
2019-03-31T02:23:03.913Z,52.23
2019-03-31T02:25:34.089Z,55.37
2019-03-31T02:28:04.111Z,53.20
2019-03-31T02:30:34.071Z,50.27
2019-03-31T02:33:04.087Z,60.33
2019-03-31T02:35:34.057Z,49.07
2019-03-31T02:38:04.016Z,65.63
2019-03-31T02:40:34.118Z,63.83
2019-03-31T02:43:04.030Z,59.83
2019-03-31T02:45:34.111Z,61.90
2019-03-31T02:48:04.130Z,55.63
2019-03-31T02:50:50.212Z,64.53
2019-03-31T02:53:20.948Z,59.67
2019-03-31T02:55:52.794Z,66.80
2019-03-31T02:58:23.170Z,61.73
2019-03-31T03:00:54.109Z,61.67
2019-03-31T03:03:23.973Z,58.17
2019-03-31T03:05:56.583Z,59.80
2019-03-31T03:08:28.660Z,59.57
2019-03-31T03:11:01.597Z,58.80
2019-03-31T03:13:33.145Z,62.00
2019-03-31T03:16:28.299Z,61.07
2019-03-31T03:18:58.339Z,62.00
2019-03-31T03:21:28.432Z,63.83
2019-03-31T03:23:58.913Z,63.47
2019-03-31T03:26:28.985Z,61.13
2019-03-31T03:28:58.834Z,60.47
2019-03-31T03:31:28.804Z,51.13
2019-03-31T03:33:58.745Z,55.67
2019-03-31T03:36:28.704Z,59.60
2019-03-31T03:38:58.678Z,55.40
2019-03-31T03:41:28.666Z,49.87
2019-03-31T03:44:02.303Z,53.20
2019-03-31T03:46:30.322Z,55.07
2019-03-31T03:49:00.451Z,57.27
2019-03-31T03:51:30.607Z,57.90
2019-03-31T03:54:00.559Z,57.33
2019-03-31T03:56:30.605Z,56.00
2019-03-31T03:59:00.797Z,55.97
2019-03-31T04:01:32.666Z,61.07
2019-03-31T04:04:02.715Z,58.93
2019-03-31T04:06:32.777Z,56.83
2019-03-31T04:09:04.538Z,53.77
2019-03-31T04:11:34.461Z,56.13
2019-03-31T04:14:04.636Z,58.50
2019-03-31T04:16:34.682Z,50.80
2019-03-31T04:19:04.691Z,48.87
2019-03-31T04:21:34.671Z,47.10
2019-03-31T04:24:04.697Z,44.77
2019-03-31T04:26:34.724Z,45.97
2019-03-31T04:29:04.827Z,33.63
2019-03-31T04:31:34.975Z,39.07
2019-03-31T04:34:04.894Z,39.10
2019-03-31T04:36:34.864Z,48.20
2019-03-31T04:39:06.656Z,40.93
2019-03-31T04:41:36.675Z,47.83
2019-03-31T04:44:06.579Z,48.23
2019-03-31T04:46:36.587Z,51.37
2019-03-31T04:49:06.586Z,53.20
2019-03-31T04:51:36.619Z,46.87
2019-03-31T04:54:06.616Z,55.57
2019-03-31T04:56:36.602Z,54.93
2019-03-31T04:59:06.635Z,51.90
2019-03-31T05:01:36.600Z,56.07
2019-03-31T05:04:06.550Z,57.37
2019-03-31T05:06:36.522Z,58.93
2019-03-31T05:09:07.314Z,61.90
2019-03-31T05:11:37.399Z,58.63
2019-03-31T05:14:07.513Z,55.67
2019-03-31T05:16:37.400Z,57.77
2019-03-31T05:19:07.321Z,58.83
2019-03-31T05:21:37.391Z,51.97
2019-03-31T05:24:07.346Z,54.43
2019-03-31T05:26:37.299Z,57.63
2019-03-31T05:29:07.272Z,56.77
2019-03-31T05:31:37.274Z,57.67
2019-03-31T05:34:18.523Z,57.07
2019-03-31T05:36:38.885Z,53.93
2019-03-31T05:39:08.943Z,50.07
2019-03-31T05:41:38.896Z,55.20
2019-03-31T05:44:09.110Z,54.00
2019-03-31T05:46:39.178Z,47.57
2019-03-31T05:49:09.192Z,43.93
2019-03-31T05:51:39.159Z,53.57
2019-03-31T05:54:09.135Z,55.17
2019-03-31T05:56:39.139Z,51.87
2019-03-31T05:59:09.213Z,55.90
2019-03-31T06:01:39.194Z,54.17
2019-03-31T06:04:09.286Z,57.63
2019-03-31T06:06:39.294Z,49.50
2019-03-31T06:09:09.174Z,40.73
2019-03-31T06:11:39.835Z,58.20
2019-03-31T06:14:09.922Z,55.00
2019-03-31T06:16:39.922Z,52.80
2019-03-31T06:19:09.919Z,52.83
2019-03-31T06:21:39.862Z,52.97
2019-03-31T06:24:09.813Z,47.13
2019-03-31T06:26:39.778Z,47.13
2019-03-31T06:29:09.712Z,49.60
2019-03-31T06:31:39.608Z,49.90
2019-03-31T06:34:09.612Z,51.67
2019-03-31T06:36:39.563Z,47.60
2019-03-31T06:39:09.622Z,47.80
2019-03-31T06:41:39.610Z,48.40
2019-03-31T06:44:09.599Z,49.03
2019-03-31T06:46:39.567Z,52.47
2019-03-31T06:49:09.692Z,48.63
2019-03-31T06:51:39.651Z,44.80
2019-03-31T06:54:09.573Z,47.33
2019-03-31T06:56:39.577Z,46.27
2019-03-31T06:59:09.538Z,46.70
2019-03-31T07:01:39.550Z,48.10
2019-03-31T07:04:09.545Z,42.20
2019-03-31T07:06:39.447Z,42.87
2019-03-31T07:09:09.507Z,45.10
2019-03-31T07:11:39.525Z,41.47
2019-03-31T07:14:09.490Z,39.60
2019-03-31T07:16:39.454Z,40.67
2019-03-31T07:19:09.405Z,34.10
2019-03-31T07:21:39.382Z,39.13
2019-03-31T07:24:09.348Z,42.73
2019-03-31T07:26:39.418Z,41.93
2019-03-31T07:29:09.264Z,35.50
2019-03-31T07:31:39.349Z,36.70
2019-03-31T07:34:09.359Z,41.17
2019-03-31T07:36:39.349Z,41.67
2019-03-31T07:39:09.402Z,42.00
2019-03-31T07:41:39.561Z,41.63
2019-03-31T07:44:09.473Z,39.07
2019-03-31T07:46:39.473Z,38.80
2019-03-31T07:49:09.449Z,37.53
2019-03-31T07:51:39.470Z,37.13
2019-03-31T07:54:09.494Z,35.33
2019-03-31T07:56:40.080Z,35.63
2019-03-31T07:59:10.435Z,35.17
2019-03-31T08:01:40.450Z,35.07
2019-03-31T08:04:10.426Z,30.30
2019-03-31T08:06:40.426Z,30.73
2019-03-31T08:09:10.710Z,23.07
2019-03-31T08:11:40.706Z,34.97
2019-03-31T08:14:10.652Z,37.53
2019-03-31T08:16:40.675Z,30.83
2019-03-31T08:19:10.721Z,18.77
2019-03-31T08:21:40.700Z,28.33
2019-03-31T08:24:10.727Z,31.67
2019-03-31T08:26:40.674Z,34.40
2019-03-31T08:29:10.627Z,21.53
2019-03-31T08:31:40.514Z,37.63
2019-03-31T08:34:10.546Z,36.23
2019-03-31T08:36:40.477Z,38.47
2019-03-31T08:39:10.522Z,30.97
2019-03-31T08:41:40.640Z,36.10
2019-03-31T08:44:10.595Z,33.40
2019-03-31T08:46:40.582Z,35.80
2019-03-31T08:49:10.526Z,38.03
2019-03-31T08:51:40.526Z,34.97
2019-03-31T08:54:10.494Z,37.90
2019-03-31T08:56:40.486Z,31.93
2019-03-31T08:59:10.425Z,37.33
2019-03-31T09:01:40.395Z,32.63
2019-03-31T09:04:10.451Z,38.07
2019-03-31T09:06:40.478Z,28.73
2019-03-31T09:09:10.586Z,31.03
2019-03-31T09:11:40.611Z,35.53
2019-03-31T09:14:10.750Z,34.93
2019-03-31T09:16:40.814Z,32.27
2019-03-31T09:19:10.855Z,33.40
2019-03-31T09:21:40.942Z,31.97
2019-03-31T09:24:10.978Z,33.70
2019-03-31T09:26:40.887Z,27.83
2019-03-31T09:29:10.961Z,29.53
2019-03-31T09:31:41.022Z,31.63
2019-03-31T09:34:11.063Z,33.00
2019-03-31T09:36:41.058Z,27.33
2019-03-31T09:39:10.985Z,23.10
2019-03-31T09:41:41.089Z,27.73
2019-03-31T09:44:11.169Z,31.23
2019-03-31T09:46:41.353Z,29.83
2019-03-31T09:49:11.453Z,34.40
2019-03-31T09:51:41.697Z,35.00
2019-03-31T09:54:12.639Z,34.53
2019-03-31T09:56:42.702Z,29.47
2019-03-31T09:59:12.786Z,27.73
2019-03-31T10:01:42.826Z,35.00
2019-03-31T10:04:12.897Z,31.57
2019-03-31T10:06:43.358Z,32.50
2019-03-31T10:09:13.171Z,34.43
2019-03-31T10:11:43.364Z,30.93
2019-03-31T10:14:13.407Z,34.00
2019-03-31T10:16:43.378Z,31.83
2019-03-31T10:19:13.611Z,28.50
2019-03-31T10:21:43.654Z,34.83
2019-03-31T10:24:13.752Z,33.60
2019-03-31T10:26:43.882Z,30.73
2019-03-31T10:29:13.926Z,27.73
2019-03-31T10:31:43.882Z,35.20
2019-03-31T10:34:14.089Z,34.77
2019-03-31T10:36:45.085Z,36.17
2019-03-31T10:39:15.303Z,31.83
2019-03-31T10:41:45.430Z,35.70
2019-03-31T10:44:15.544Z,34.77
2019-03-31T10:46:45.735Z,35.10
2019-03-31T10:49:15.829Z,34.00
2019-03-31T10:51:45.897Z,32.17
2019-03-31T10:54:16.005Z,33.07
2019-03-31T10:56:46.028Z,34.37
2019-03-31T10:59:16.071Z,34.70
2019-03-31T11:01:46.263Z,23.43
2019-03-31T11:04:16.493Z,30.50
2019-03-31T11:06:58.426Z,23.17
2019-03-31T11:09:18.219Z,27.43
2019-03-31T11:11:48.155Z,16.70
2019-03-31T11:14:18.158Z,31.53
2019-03-31T11:16:48.487Z,25.07
2019-03-31T11:19:18.453Z,18.10
2019-03-31T11:22:13.514Z,14.87
2019-03-31T11:24:43.515Z,31.73
2019-03-31T11:27:13.614Z,18.63
2019-03-31T11:29:43.632Z,25.47
2019-03-31T11:32:13.690Z,32.30
2019-03-31T11:34:43.807Z,35.40
2019-03-31T11:37:14.187Z,30.83
2019-03-31T11:39:44.331Z,23.40
2019-03-31T11:42:14.338Z,32.30
2019-03-31T11:44:44.438Z,33.23
2019-03-31T11:47:14.396Z,21.63
2019-03-31T11:49:44.394Z,27.90
2019-03-31T11:52:14.550Z,31.87
2019-03-31T11:54:46.020Z,27.63
2019-03-31T11:57:17.718Z,23.23
2019-03-31T11:59:49.684Z,26.47
2019-03-31T12:02:27.098Z,26.40
2019-03-31T12:04:51.488Z,29.67
2019-03-31T12:07:27.827Z,28.77
2019-03-31T12:09:53.295Z,21.17
2019-03-31T12:12:23.280Z,20.87
2019-03-31T12:15:00.248Z,30.60
2019-03-31T12:17:25.531Z,28.30
2019-03-31T12:19:55.618Z,17.10
2019-03-31T12:22:25.602Z,29.03
2019-03-31T12:24:55.537Z,30.70
2019-03-31T12:27:25.666Z,27.40
2019-03-31T12:29:55.566Z,27.03
2019-03-31T12:32:25.538Z,21.70
2019-03-31T12:34:55.787Z,20.70
2019-03-31T12:37:25.965Z,20.07
2019-03-31T12:39:56.054Z,16.03
2019-03-31T12:42:26.002Z,20.67
2019-03-31T12:44:56.010Z,20.60
2019-03-31T12:47:26.086Z,15.03
2019-03-31T12:49:56.063Z,18.43
2019-03-31T12:52:26.026Z,14.37
2019-03-31T12:54:58.070Z,15.43
2019-03-31T12:57:27.994Z,15.07
2019-03-31T12:59:57.954Z,10.33
2019-03-31T13:02:28.093Z,17.07
2019-03-31T13:04:58.195Z,16.23
2019-03-31T13:07:28.226Z,13.10
2019-03-31T13:09:58.254Z,12.00
2019-03-31T13:12:28.269Z,13.43
2019-03-31T13:14:58.313Z,9.30
2019-03-31T13:17:28.283Z,11.77
2019-03-31T13:19:58.253Z,12.23
2019-03-31T13:22:28.396Z,9.03
2019-03-31T13:25:02.029Z,4.97
2019-03-31T13:27:30.100Z,13.63
2019-03-31T13:30:00.050Z,6.60
2019-03-31T13:32:30.163Z,11.67
2019-03-31T13:35:00.100Z,9.57
2019-03-31T13:37:30.156Z,7.03
2019-03-31T13:40:00.361Z,10.20
2019-03-31T13:42:30.482Z,9.50
2019-03-31T13:45:00.511Z,7.60
2019-03-31T13:47:30.565Z,6.00
2019-03-31T13:50:00.561Z,5.47
2019-03-31T13:52:30.543Z,7.60
2019-03-31T13:55:00.784Z,9.40
2019-03-31T13:57:32.533Z,9.53
2019-03-31T14:00:09.721Z,6.57
2019-03-31T14:02:39.746Z,7.67
2019-03-31T14:05:09.747Z,3.53
2019-03-31T14:07:39.870Z,12.47
2019-03-31T14:10:10.082Z,7.27
2019-03-31T14:12:40.449Z,8.70
2019-03-31T14:15:18.896Z,8.93
2019-03-31T14:17:42.247Z,6.07
2019-03-31T14:20:13.818Z,6.57
2019-03-31T14:22:43.701Z,7.20
2019-03-31T14:25:13.682Z,5.37
2019-03-31T14:27:43.629Z,5.13
2019-03-31T14:30:13.800Z,8.60
2019-03-31T14:32:43.770Z,6.47
2019-03-31T14:35:13.845Z,5.60
2019-03-31T14:37:43.880Z,4.77
2019-03-31T14:40:13.982Z,5.37
2019-03-31T14:42:44.037Z,6.70
2019-03-31T14:45:22.732Z,6.67
2019-03-31T14:47:52.754Z,8.93
2019-03-31T14:50:33.051Z,7.83
2019-03-31T14:53:03.361Z,5.73
2019-03-31T14:55:33.637Z,6.50
2019-03-31T14:58:03.698Z,5.97
2019-03-31T15:00:33.634Z,7.03
2019-03-31T15:03:03.880Z,6.53
2019-03-31T15:05:37.366Z,4.87
2019-03-31T15:08:07.445Z,4.83
2019-03-31T15:10:37.639Z,5.00
2019-03-31T15:13:07.799Z,5.03
2019-03-31T15:15:38.026Z,5.57
2019-03-31T15:18:08.146Z,3.87
2019-03-31T15:20:38.035Z,4.70
2019-03-31T15:23:08.039Z,3.17
2019-03-31T15:25:38.067Z,4.43
2019-03-31T15:28:07.973Z,2.67
2019-03-31T15:30:37.933Z,3.47
2019-03-31T15:33:07.911Z,3.17
2019-03-31T15:35:38.101Z,3.83
2019-03-31T15:38:08.255Z,3.17
2019-03-31T15:40:38.290Z,2.90
2019-03-31T15:43:08.267Z,3.87
2019-03-31T15:45:38.199Z,4.00
2019-03-31T15:48:08.302Z,4.53
2019-03-31T15:50:38.333Z,3.00
2019-03-31T15:53:08.347Z,3.17
2019-03-31T15:55:40.422Z,3.63
2019-03-31T15:58:10.382Z,4.23
2019-03-31T16:00:40.360Z,4.50
2019-03-31T16:03:10.258Z,3.22
2019-03-31T16:05:40.259Z,3.02
2019-03-31T16:08:09.775Z,4.20
2019-03-31T16:10:39.206Z,4.80
2019-03-31T16:13:08.627Z,3.53
2019-03-31T16:15:38.193Z,3.90
2019-03-31T16:18:07.604Z,2.67
2019-03-31T16:20:37.135Z,2.93
2019-03-31T16:23:06.651Z,2.80
2019-03-31T16:25:42.101Z,3.53
2019-03-31T16:28:11.562Z,3.80
2019-03-31T16:30:41.026Z,3.37
2019-03-31T16:33:10.537Z,2.43
2019-03-31T16:35:40.085Z,4.30
2019-03-31T16:38:09.565Z,3.60
2019-03-31T16:40:39.010Z,3.97
2019-03-31T16:43:08.538Z,2.67
2019-03-31T16:45:38.019Z,4.13
2019-03-31T16:48:07.525Z,4.00
2019-03-31T16:50:36.969Z,6.70
2019-03-31T16:53:06.366Z,4.20
2019-03-31T16:55:36.151Z,5.50
2019-03-31T16:58:09.191Z,7.37
2019-03-31T17:00:36.815Z,3.20
2019-03-31T17:03:06.425Z,9.43
2019-03-31T17:05:35.894Z,5.93
2019-03-31T17:08:05.368Z,4.53
2019-03-31T17:10:35.021Z,4.07
2019-03-31T17:13:04.497Z,3.43
2019-03-31T17:15:34.126Z,5.20
2019-03-31T17:18:03.782Z,3.83
2019-03-31T17:20:33.193Z,5.47
2019-03-31T17:23:02.674Z,4.13
2019-03-31T17:25:32.161Z,5.13
2019-03-31T17:28:01.618Z,3.50
2019-03-31T17:30:30.956Z,3.10
2019-03-31T17:33:00.663Z,4.50
2019-03-31T17:35:30.303Z,3.90
2019-03-31T17:37:59.840Z,4.27
2019-03-31T17:40:29.183Z,4.67
2019-03-31T17:42:58.718Z,3.53
2019-03-31T17:45:28.101Z,5.00
2019-03-31T17:47:57.556Z,4.83
2019-03-31T17:50:27.075Z,4.90
2019-03-31T17:52:56.555Z,6.07
2019-03-31T17:55:25.916Z,5.23
2019-03-31T17:57:55.475Z,4.23
2019-03-31T18:00:27.768Z,7.03
2019-03-31T18:02:57.196Z,4.83
2019-03-31T18:05:26.635Z,5.43
2019-03-31T18:07:56.097Z,6.33
2019-03-31T18:10:25.582Z,9.77
2019-03-31T18:12:55.078Z,9.93
2019-03-31T18:15:24.542Z,8.87
2019-03-31T18:17:53.966Z,8.27
2019-03-31T18:20:23.417Z,8.50
2019-03-31T18:22:52.839Z,8.13
2019-03-31T18:25:22.271Z,6.50
2019-03-31T18:27:51.670Z,5.63
2019-03-31T18:30:21.287Z,5.30
2019-03-31T18:32:50.738Z,5.47
2019-03-31T18:35:20.268Z,4.43
2019-03-31T18:37:49.691Z,5.20
2019-03-31T18:40:19.055Z,5.80
2019-03-31T18:42:48.567Z,6.17
2019-03-31T18:45:17.934Z,7.13
2019-03-31T18:47:47.452Z,7.67
2019-03-31T18:50:17.103Z,8.73
2019-03-31T18:52:46.474Z,10.30
2019-03-31T18:55:43.809Z,11.47
2019-03-31T18:58:22.475Z,13.63
2019-03-31T19:01:14.362Z,16.17
2019-03-31T19:04:11.758Z,15.23
2019-03-31T19:07:06.314Z,12.67
2019-03-31T19:09:57.538Z,12.37
2019-03-31T19:12:48.927Z,13.33
2019-03-31T19:15:36.138Z,14.80
2019-03-31T19:18:36.755Z,12.47
2019-03-31T19:21:15.206Z,9.43
2019-03-31T19:23:52.970Z,6.57
2019-03-31T19:26:48.085Z,4.27
2019-03-31T19:29:25.815Z,3.50
2019-03-31T19:32:05.538Z,2.73
2019-03-31T19:34:57.056Z,3.53
2019-03-31T19:37:39.889Z,3.63
2019-03-31T19:40:27.299Z,3.83
2019-03-31T19:43:16.271Z,4.23
2019-03-31T19:46:05.783Z,3.87
2019-03-31T19:48:52.455Z,3.90
2019-03-31T19:51:39.696Z,3.90
2019-03-31T19:54:26.718Z,4.67
2019-03-31T19:57:23.949Z,3.63
2019-03-31T20:00:06.978Z,4.87
2019-03-31T20:03:04.478Z,4.17
2019-03-31T20:05:56.356Z,6.20
2019-03-31T20:08:37.418Z,5.60
2019-03-31T20:11:17.380Z,4.50
2019-03-31T20:13:56.742Z,4.37
2019-03-31T20:16:43.406Z,3.87
2019-03-31T20:19:34.574Z,4.90
2019-03-31T20:22:21.768Z,3.50
2019-03-31T20:25:22.416Z,3.73
2019-03-31T20:28:15.232Z,3.97
2019-03-31T20:31:02.604Z,3.43
2019-03-31T20:33:54.269Z,2.90
2019-03-31T20:36:39.583Z,3.50
2019-03-31T20:39:34.566Z,3.17
2019-03-31T20:42:21.791Z,3.10
2019-03-31T20:44:51.324Z,3.60
2019-03-31T20:47:20.704Z,3.47
2019-03-31T20:49:50.208Z,2.87
2019-03-31T20:52:19.599Z,3.07
2019-03-31T20:54:48.986Z,3.57
2019-03-31T20:57:18.433Z,3.07
2019-03-31T20:59:47.884Z,3.00
2019-03-31T21:02:17.554Z,3.20
2019-03-31T21:04:46.990Z,3.73
2019-03-31T21:07:16.457Z,2.90
2019-03-31T21:09:45.890Z,3.07
2019-03-31T21:12:15.298Z,3.07
2019-03-31T21:14:44.730Z,2.67
2019-03-31T21:17:14.094Z,3.00
2019-03-31T21:19:43.543Z,2.97
2019-03-31T21:22:12.990Z,6.63
2019-03-31T21:24:42.418Z,3.23
2019-03-31T21:27:11.856Z,3.50
2019-03-31T21:29:41.271Z,5.53
2019-03-31T21:32:10.655Z,3.70
2019-03-31T21:34:40.216Z,3.70
2019-03-31T21:37:09.534Z,4.10
2019-03-31T21:39:39.262Z,3.97
2019-03-31T21:42:08.730Z,3.97
2019-03-31T21:44:38.245Z,4.70
2019-03-31T21:47:07.715Z,4.37
2019-03-31T21:49:37.034Z,4.73
2019-03-31T21:52:06.474Z,4.90
2019-03-31T21:54:35.856Z,5.27
2019-03-31T21:57:05.285Z,5.50
2019-03-31T21:59:34.653Z,6.20
2019-03-31T22:02:04.506Z,6.90
2019-03-31T22:04:33.946Z,7.30
2019-03-31T22:07:03.567Z,6.23
2019-03-31T22:09:32.982Z,6.23
2019-03-31T22:12:02.668Z,6.30
2019-03-31T22:14:32.202Z,6.00
2019-03-31T22:17:01.746Z,6.63
2019-03-31T22:19:31.121Z,5.90
2019-03-31T22:22:00.515Z,5.57
2019-03-31T22:24:29.995Z,6.70
2019-03-31T22:26:59.456Z,5.73
2019-03-31T22:29:28.815Z,6.13
2019-03-31T22:31:58.249Z,4.90
2019-03-31T22:34:27.637Z,5.93
2019-03-31T22:36:57.014Z,5.40
2019-03-31T22:39:26.442Z,6.27
2019-03-31T22:41:55.824Z,7.50
2019-03-31T22:44:25.275Z,6.87
2019-03-31T22:46:54.804Z,5.83
2019-03-31T22:49:24.378Z,5.20
2019-03-31T22:51:56.417Z,5.43
2019-03-31T22:54:24.982Z,5.57
2019-03-31T22:56:54.486Z,4.80
2019-03-31T22:59:24.038Z,4.13
2019-03-31T23:01:53.487Z,4.83
2019-03-31T23:04:23.063Z,4.53
2019-03-31T23:06:52.435Z,4.80
2019-03-31T23:09:21.878Z,4.13
2019-03-31T23:11:51.479Z,5.07
2019-03-31T23:14:20.904Z,3.87
2019-03-31T23:16:50.339Z,4.30
2019-03-31T23:19:19.729Z,4.07
2019-03-31T23:21:49.154Z,4.20
2019-03-31T23:24:18.578Z,3.37
2019-03-31T23:26:47.979Z,4.23
2019-03-31T23:29:17.354Z,4.13
2019-03-31T23:31:46.735Z,5.10
2019-03-31T23:34:16.121Z,5.00
2019-03-31T23:36:45.571Z,4.37
2019-03-31T23:39:14.928Z,4.67
2019-03-31T23:41:44.403Z,4.80
2019-03-31T23:44:13.822Z,4.73
2019-03-31T23:46:43.290Z,3.97
2019-03-31T23:49:12.642Z,4.60
2019-03-31T23:51:42.062Z,5.07
2019-03-31T23:54:11.494Z,4.03
2019-03-31T23:56:40.971Z,4.70
2019-03-31T23:59:10.342Z,5.07
